sensor_id;sensor_type;location;lat;lon;timestamp;temperature;humidity
72320;SHT30;60269;52.502;16.732;2023-04-25T00:02:53;7.49;82.32
72320;SHT30;60269;52.502;16.732;2023-04-25T00:06:25;7.43;82.54
72320;SHT30;60269;52.502;16.732;2023-04-25T00:09:58;7.45;82.39
72320;SHT30;60269;52.502;16.732;2023-04-25T00:13:30;7.32;82.91
72320;SHT30;60269;52.502;16.732;2023-04-25T00:17:02;7.35;82.78
72320;SHT30;60269;52.502;16.732;2023-04-25T00:20:35;7.28;83.02
72320;SHT30;60269;52.502;16.732;2023-04-25T00:24:08;7.21;83.53
72320;SHT30;60269;52.502;16.732;2023-04-25T00:27:40;6.98;84.61
72320;SHT30;60269;52.502;16.732;2023-04-25T00:31:13;6.84;85.32
72320;SHT30;60269;52.502;16.732;2023-04-25T00:34:46;6.76;85.71
72320;SHT30;60269;52.502;16.732;2023-04-25T00:38:18;6.66;86.35
72320;SHT30;60269;52.502;16.732;2023-04-25T00:41:50;6.54;87.17
72320;SHT30;60269;52.502;16.732;2023-04-25T00:45:27;6.33;88.31
72320;SHT30;60269;52.502;16.732;2023-04-25T00:49:00;6.29;88.79
72320;SHT30;60269;52.502;16.732;2023-04-25T00:52:32;6.26;88.92
72320;SHT30;60269;52.502;16.732;2023-04-25T00:56:04;6.22;88.62
72320;SHT30;60269;52.502;16.732;2023-04-25T00:59:38;6.28;88.50
72320;SHT30;60269;52.502;16.732;2023-04-25T01:03:10;6.15;88.86
72320;SHT30;60269;52.502;16.732;2023-04-25T01:06:42;6.16;89.04
72320;SHT30;60269;52.502;16.732;2023-04-25T01:10:14;6.12;89.33
72320;SHT30;60269;52.502;16.732;2023-04-25T01:13:47;6.11;89.22
72320;SHT30;60269;52.502;16.732;2023-04-25T01:17:19;6.11;89.28
72320;SHT30;60269;52.502;16.732;2023-04-25T01:20:53;6.06;89.35
72320;SHT30;60269;52.502;16.732;2023-04-25T01:24:25;5.93;89.82
72320;SHT30;60269;52.502;16.732;2023-04-25T01:27:58;5.87;90.01
72320;SHT30;60269;52.502;16.732;2023-04-25T01:31:31;5.78;90.44
72320;SHT30;60269;52.502;16.732;2023-04-25T01:35:08;5.75;90.68
72320;SHT30;60269;52.502;16.732;2023-04-25T01:38:41;5.67;91.01
72320;SHT30;60269;52.502;16.732;2023-04-25T01:42:13;5.54;91.66
72320;SHT30;60269;52.502;16.732;2023-04-25T01:45:45;5.43;92.16
72320;SHT30;60269;52.502;16.732;2023-04-25T01:49:18;5.32;92.53
72320;SHT30;60269;52.502;16.732;2023-04-25T01:52:50;5.37;92.74
72320;SHT30;60269;52.502;16.732;2023-04-25T01:56:22;5.53;92.30
72320;SHT30;60269;52.502;16.732;2023-04-25T01:59:58;5.60;92.02
72320;SHT30;60269;52.502;16.732;2023-04-25T02:03:31;5.53;92.46
72320;SHT30;60269;52.502;16.732;2023-04-25T02:07:03;5.43;92.98
72320;SHT30;60269;52.502;16.732;2023-04-25T02:10:36;5.51;92.80
72320;SHT30;60269;52.502;16.732;2023-04-25T02:14:08;5.51;92.74
72320;SHT30;60269;52.502;16.732;2023-04-25T02:17:40;5.56;92.51
72320;SHT30;60269;52.502;16.732;2023-04-25T02:21:12;5.64;92.02
72320;SHT30;60269;52.502;16.732;2023-04-25T02:24:44;5.74;91.64
72320;SHT30;60269;52.502;16.732;2023-04-25T02:28:16;5.77;91.27
72320;SHT30;60269;52.502;16.732;2023-04-25T02:31:48;5.70;91.66
72320;SHT30;60269;52.502;16.732;2023-04-25T02:35:20;5.70;91.64
72320;SHT30;60269;52.502;16.732;2023-04-25T02:38:52;5.75;91.43
72320;SHT30;60269;52.502;16.732;2023-04-25T02:42:24;5.85;90.99
72320;SHT30;60269;52.502;16.732;2023-04-25T02:45:56;5.78;91.01
72320;SHT30;60269;52.502;16.732;2023-04-25T02:49:28;5.70;91.42
72320;SHT30;60269;52.502;16.732;2023-04-25T02:53:00;5.71;91.51
72320;SHT30;60269;52.502;16.732;2023-04-25T02:56:32;5.57;91.96
72320;SHT30;60269;52.502;16.732;2023-04-25T03:00:05;5.60;91.94
72320;SHT30;60269;52.502;16.732;2023-04-25T03:03:37;5.64;91.72
72320;SHT30;60269;52.502;16.732;2023-04-25T03:07:09;5.63;91.79
72320;SHT30;60269;52.502;16.732;2023-04-25T03:10:41;5.67;91.83
72320;SHT30;60269;52.502;16.732;2023-04-25T03:14:13;5.54;92.41
72320;SHT30;60269;52.502;16.732;2023-04-25T03:17:46;5.53;92.62
72320;SHT30;60269;52.502;16.732;2023-04-25T03:21:18;5.50;92.72
72320;SHT30;60269;52.502;16.732;2023-04-25T03:24:50;5.51;92.64
72320;SHT30;60269;52.502;16.732;2023-04-25T03:28:22;5.53;92.85
72320;SHT30;60269;52.502;16.732;2023-04-25T03:31:54;5.48;92.94
72320;SHT30;60269;52.502;16.732;2023-04-25T03:35:26;5.47;93.16
72320;SHT30;60269;52.502;16.732;2023-04-25T03:38:58;5.35;93.86
72320;SHT30;60269;52.502;16.732;2023-04-25T03:42:30;5.42;93.76
72320;SHT30;60269;52.502;16.732;2023-04-25T03:46:02;5.40;93.77
72320;SHT30;60269;52.502;16.732;2023-04-25T03:49:35;5.48;93.69
72320;SHT30;60269;52.502;16.732;2023-04-25T03:53:08;5.48;93.71
72320;SHT30;60269;52.502;16.732;2023-04-25T03:56:40;5.40;93.95
72320;SHT30;60269;52.502;16.732;2023-04-25T04:00:12;5.51;93.43
72320;SHT30;60269;52.502;16.732;2023-04-25T04:03:44;5.63;93.12
72320;SHT30;60269;52.502;16.732;2023-04-25T04:07:16;5.74;92.88
72320;SHT30;60269;52.502;16.732;2023-04-25T04:10:48;5.74;92.94
72320;SHT30;60269;52.502;16.732;2023-04-25T04:14:20;5.70;93.29
72320;SHT30;60269;52.502;16.732;2023-04-25T04:17:53;5.77;93.15
72320;SHT30;60269;52.502;16.732;2023-04-25T04:21:26;5.84;93.31
72320;SHT30;60269;52.502;16.732;2023-04-25T04:24:59;6.01;92.80
72320;SHT30;60269;52.502;16.732;2023-04-25T04:28:34;6.21;91.98
72320;SHT30;60269;52.502;16.732;2023-04-25T04:32:07;6.33;91.44
72320;SHT30;60269;52.502;16.732;2023-04-25T04:35:41;6.33;91.26
72320;SHT30;60269;52.502;16.732;2023-04-25T04:39:13;6.43;90.99
72320;SHT30;60269;52.502;16.732;2023-04-25T04:42:46;6.46;90.75
72320;SHT30;60269;52.502;16.732;2023-04-25T04:46:18;6.50;90.62
72320;SHT30;60269;52.502;16.732;2023-04-25T04:49:50;6.49;90.76
72320;SHT30;60269;52.502;16.732;2023-04-25T04:53:22;6.57;90.56
72320;SHT30;60269;52.502;16.732;2023-04-25T04:56:54;6.66;90.10
72320;SHT30;60269;52.502;16.732;2023-04-25T05:00:27;6.73;89.84
72320;SHT30;60269;52.502;16.732;2023-04-25T05:04:00;6.81;89.70
72320;SHT30;60269;52.502;16.732;2023-04-25T05:07:33;6.94;89.45
72320;SHT30;60269;52.502;16.732;2023-04-25T05:11:05;7.12;88.70
72320;SHT30;60269;52.502;16.732;2023-04-25T05:14:38;7.26;88.23
72320;SHT30;60269;52.502;16.732;2023-04-25T05:18:09;7.42;87.73
72320;SHT30;60269;52.502;16.732;2023-04-25T05:21:41;7.58;86.81
72320;SHT30;60269;52.502;16.732;2023-04-25T05:25:14;7.70;86.70
72320;SHT30;60269;52.502;16.732;2023-04-25T05:28:46;7.86;85.75
72320;SHT30;60269;52.502;16.732;2023-04-25T05:32:18;8.02;84.75
72320;SHT30;60269;52.502;16.732;2023-04-25T05:35:51;8.08;83.46
72320;SHT30;60269;52.502;16.732;2023-04-25T05:39:23;8.46;83.23
72320;SHT30;60269;52.502;16.732;2023-04-25T05:42:55;8.41;81.99
72320;SHT30;60269;52.502;16.732;2023-04-25T05:46:27;8.39;82.10
72320;SHT30;60269;52.502;16.732;2023-04-25T05:49:59;8.49;81.69
72320;SHT30;60269;52.502;16.732;2023-04-25T05:53:31;8.69;81.30
72320;SHT30;60269;52.502;16.732;2023-04-25T05:57:03;8.66;81.24
72320;SHT30;60269;52.502;16.732;2023-04-25T06:00:36;8.49;80.99
72320;SHT30;60269;52.502;16.732;2023-04-25T06:04:08;8.37;81.06
72320;SHT30;60269;52.502;16.732;2023-04-25T06:07:40;8.32;81.12
72320;SHT30;60269;52.502;16.732;2023-04-25T06:11:12;8.41;80.73
72320;SHT30;60269;52.502;16.732;2023-04-25T06:14:44;8.72;80.10
72320;SHT30;60269;52.502;16.732;2023-04-25T06:18:16;8.90;80.19
72320;SHT30;60269;52.502;16.732;2023-04-25T06:21:48;8.89;79.62
72320;SHT30;60269;52.502;16.732;2023-04-25T06:25:20;8.93;78.56
72320;SHT30;60269;52.502;16.732;2023-04-25T06:28:53;9.14;78.96
72320;SHT30;60269;52.502;16.732;2023-04-25T06:32:25;8.97;79.40
72320;SHT30;60269;52.502;16.732;2023-04-25T06:35:59;9.01;79.03
72320;SHT30;60269;52.502;16.732;2023-04-25T06:39:32;8.90;78.64
72320;SHT30;60269;52.502;16.732;2023-04-25T06:43:04;8.89;78.95
72320;SHT30;60269;52.502;16.732;2023-04-25T06:46:36;8.96;79.20
72320;SHT30;60269;52.502;16.732;2023-04-25T06:50:09;9.26;78.55
72320;SHT30;60269;52.502;16.732;2023-04-25T06:53:42;9.11;77.86
72320;SHT30;60269;52.502;16.732;2023-04-25T06:57:14;9.18;77.50
72320;SHT30;60269;52.502;16.732;2023-04-25T07:00:47;9.35;77.41
72320;SHT30;60269;52.502;16.732;2023-04-25T07:04:19;9.76;77.12
72320;SHT30;60269;52.502;16.732;2023-04-25T07:07:52;9.65;76.14
72320;SHT30;60269;52.502;16.732;2023-04-25T07:11:24;9.78;75.86
72320;SHT30;60269;52.502;16.732;2023-04-25T07:14:56;9.72;75.91
72320;SHT30;60269;52.502;16.732;2023-04-25T07:18:28;9.81;75.74
72320;SHT30;60269;52.502;16.732;2023-04-25T07:22:00;9.95;74.56
72320;SHT30;60269;52.502;16.732;2023-04-25T07:25:33;10.02;75.05
72320;SHT30;60269;52.502;16.732;2023-04-25T07:29:04;10.54;74.60
72320;SHT30;60269;52.502;16.732;2023-04-25T07:32:37;10.29;73.93
72320;SHT30;60269;52.502;16.732;2023-04-25T07:36:09;10.34;73.45
72320;SHT30;60269;52.502;16.732;2023-04-25T07:39:41;10.36;73.13
72320;SHT30;60269;52.502;16.732;2023-04-25T07:43:36;10.06;74.66
72320;SHT30;60269;52.502;16.732;2023-04-25T07:47:09;10.44;73.23
72320;SHT30;60269;52.502;16.732;2023-04-25T07:50:41;10.14;74.04
72320;SHT30;60269;52.502;16.732;2023-04-25T07:54:14;10.40;73.05
72320;SHT30;60269;52.502;16.732;2023-04-25T07:57:47;10.60;73.10
72320;SHT30;60269;52.502;16.732;2023-04-25T08:01:18;10.76;71.51
72320;SHT30;60269;52.502;16.732;2023-04-25T08:04:52;10.88;71.54
72320;SHT30;60269;52.502;16.732;2023-04-25T08:08:25;11.19;70.07
72320;SHT30;60269;52.502;16.732;2023-04-25T08:11:57;11.15;70.54
72320;SHT30;60269;52.502;16.732;2023-04-25T08:15:29;11.33;69.67
72320;SHT30;60269;52.502;16.732;2023-04-25T08:19:02;11.50;69.71
72320;SHT30;60269;52.502;16.732;2023-04-25T08:22:34;12.08;68.31
72320;SHT30;60269;52.502;16.732;2023-04-25T08:26:07;11.91;68.14
72320;SHT30;60269;52.502;16.732;2023-04-25T08:29:39;11.54;67.94
72320;SHT30;60269;52.502;16.732;2023-04-25T08:33:11;12.15;66.32
72320;SHT30;60269;52.502;16.732;2023-04-25T08:36:43;11.53;68.34
72320;SHT30;60269;52.502;16.732;2023-04-25T08:40:15;11.33;68.48
72320;SHT30;60269;52.502;16.732;2023-04-25T08:43:48;11.63;67.96
72320;SHT30;60269;52.502;16.732;2023-04-25T08:47:23;11.95;68.20
72320;SHT30;60269;52.502;16.732;2023-04-25T08:50:56;11.54;68.85
72320;SHT30;60269;52.502;16.732;2023-04-25T08:54:30;11.51;68.07
72320;SHT30;60269;52.502;16.732;2023-04-25T08:58:09;11.85;66.29
72320;SHT30;60269;52.502;16.732;2023-04-25T09:01:42;12.32;66.45
72320;SHT30;60269;52.502;16.732;2023-04-25T09:05:14;12.28;65.67
72320;SHT30;60269;52.502;16.732;2023-04-25T09:08:50;12.72;65.28
72320;SHT30;60269;52.502;16.732;2023-04-25T09:12:22;13.11;63.51
72320;SHT30;60269;52.502;16.732;2023-04-25T09:15:56;12.83;62.65
72320;SHT30;60269;52.502;16.732;2023-04-25T09:19:29;12.77;63.06
72320;SHT30;60269;52.502;16.732;2023-04-25T09:23:05;12.98;62.22
72320;SHT30;60269;52.502;16.732;2023-04-25T09:26:39;12.76;63.35
72320;SHT30;60269;52.502;16.732;2023-04-25T09:30:11;12.67;63.94
72320;SHT30;60269;52.502;16.732;2023-04-25T09:33:44;12.60;63.81
72320;SHT30;60269;52.502;16.732;2023-04-25T09:37:20;12.24;63.96
72320;SHT30;60269;52.502;16.732;2023-04-25T09:40:52;12.37;65.02
72320;SHT30;60269;52.502;16.732;2023-04-25T09:44:25;12.29;64.72
72320;SHT30;60269;52.502;16.732;2023-04-25T09:48:03;12.42;62.57
72320;SHT30;60269;52.502;16.732;2023-04-25T09:51:38;12.57;61.59
72320;SHT30;60269;52.502;16.732;2023-04-25T09:55:10;13.11;61.78
72320;SHT30;60269;52.502;16.732;2023-04-25T09:58:42;12.72;60.47
72320;SHT30;60269;52.502;16.732;2023-04-25T10:02:16;12.88;60.19
72320;SHT30;60269;52.502;16.732;2023-04-25T10:05:49;13.18;60.15
72320;SHT30;60269;52.502;16.732;2023-04-25T10:09:24;13.70;58.10
72320;SHT30;60269;52.502;16.732;2023-04-25T10:12:57;13.08;59.58
72320;SHT30;60269;52.502;16.732;2023-04-25T10:16:30;12.50;59.41
72320;SHT30;60269;52.502;16.732;2023-04-25T10:20:03;11.88;61.96
72320;SHT30;60269;52.502;16.732;2023-04-25T10:23:37;11.87;63.25
72320;SHT30;60269;52.502;16.732;2023-04-25T10:27:10;11.98;63.43
72320;SHT30;60269;52.502;16.732;2023-04-25T10:31:02;12.02;63.48
72320;SHT30;60269;52.502;16.732;2023-04-25T10:34:42;11.71;64.26
72320;SHT30;60269;52.502;16.732;2023-04-25T10:38:15;11.50;64.09
72320;SHT30;60269;52.502;16.732;2023-04-25T10:41:52;11.57;64.63
72320;SHT30;60269;52.502;16.732;2023-04-25T10:45:25;11.67;64.66
72320;SHT30;60269;52.502;16.732;2023-04-25T10:48:59;12.42;63.37
72320;SHT30;60269;52.502;16.732;2023-04-25T10:52:32;13.73;60.39
72320;SHT30;60269;52.502;16.732;2023-04-25T10:56:38;14.73;54.48
72320;SHT30;60269;52.502;16.732;2023-04-25T11:03:47;14.93;51.76
72320;SHT30;60269;52.502;16.732;2023-04-25T11:07:34;14.11;55.69
72320;SHT30;60269;52.502;16.732;2023-04-25T11:11:09;13.72;56.31
72320;SHT30;60269;52.502;16.732;2023-04-25T11:14:41;13.53;57.51
72320;SHT30;60269;52.502;16.732;2023-04-25T11:18:15;13.36;58.76
72320;SHT30;60269;52.502;16.732;2023-04-25T11:21:48;13.11;59.55
72320;SHT30;60269;52.502;16.732;2023-04-25T11:25:19;12.88;60.60
72320;SHT30;60269;52.502;16.732;2023-04-25T11:28:57;12.91;60.51
72320;SHT30;60269;52.502;16.732;2023-04-25T11:32:29;12.98;61.47
72320;SHT30;60269;52.502;16.732;2023-04-25T11:36:01;12.49;60.59
72320;SHT30;60269;52.502;16.732;2023-04-25T11:39:34;12.24;61.66
72320;SHT30;60269;52.502;16.732;2023-04-25T11:43:06;12.21;63.58
72320;SHT30;60269;52.502;16.732;2023-04-25T11:46:38;11.99;65.44
72320;SHT30;60269;52.502;16.732;2023-04-25T11:50:11;12.09;64.71
72320;SHT30;60269;52.502;16.732;2023-04-25T11:53:46;12.09;63.56
72320;SHT30;60269;52.502;16.732;2023-04-25T11:57:21;12.06;63.27
72320;SHT30;60269;52.502;16.732;2023-04-25T12:00:53;11.92;62.33
72320;SHT30;60269;52.502;16.732;2023-04-25T12:04:25;12.01;64.23
72320;SHT30;60269;52.502;16.732;2023-04-25T12:07:58;11.75;65.30
72320;SHT30;60269;52.502;16.732;2023-04-25T12:11:30;12.04;64.63
72320;SHT30;60269;52.502;16.732;2023-04-25T12:18:51;12.28;64.80
72320;SHT30;60269;52.502;16.732;2023-04-25T12:22:24;12.45;64.46
72320;SHT30;60269;52.502;16.732;2023-04-25T12:25:56;13.21;61.79
72320;SHT30;60269;52.502;16.732;2023-04-25T12:29:31;14.17;56.95
72320;SHT30;60269;52.502;16.732;2023-04-25T12:33:19;14.54;55.11
72320;SHT30;60269;52.502;16.732;2023-04-25T12:36:52;14.22;57.78
72320;SHT30;60269;52.502;16.732;2023-04-25T12:40:24;13.66;59.36
72320;SHT30;60269;52.502;16.732;2023-04-25T12:43:56;13.32;61.08
72320;SHT30;60269;52.502;16.732;2023-04-25T12:47:28;12.02;63.39
72320;SHT30;60269;52.502;16.732;2023-04-25T12:51:00;12.24;65.92
72320;SHT30;60269;52.502;16.732;2023-04-25T12:54:32;11.33;69.46
72320;SHT30;60269;52.502;16.732;2023-04-25T12:58:04;10.92;72.43
72320;SHT30;60269;52.502;16.732;2023-04-25T13:01:36;10.91;72.96
72320;SHT30;60269;52.502;16.732;2023-04-25T13:05:08;11.43;72.55
72320;SHT30;60269;52.502;16.732;2023-04-25T13:08:40;11.39;72.58
72320;SHT30;60269;52.502;16.732;2023-04-25T13:12:13;11.71;68.27
72320;SHT30;60269;52.502;16.732;2023-04-25T13:15:45;12.01;67.57
72320;SHT30;60269;52.502;16.732;2023-04-25T13:19:20;11.67;66.92
72320;SHT30;60269;52.502;16.732;2023-04-25T13:22:52;11.78;65.78
72320;SHT30;60269;52.502;16.732;2023-04-25T13:26:24;11.71;66.44
72320;SHT30;60269;52.502;16.732;2023-04-25T13:29:58;12.15;65.03
72320;SHT30;60269;52.502;16.732;2023-04-25T13:33:30;12.26;65.41
72320;SHT30;60269;52.502;16.732;2023-04-25T13:37:02;12.15;66.24
72320;SHT30;60269;52.502;16.732;2023-04-25T13:40:34;12.60;64.64
72320;SHT30;60269;52.502;16.732;2023-04-25T13:44:07;12.49;62.83
72320;SHT30;60269;52.502;16.732;2023-04-25T13:47:39;12.33;63.87
72320;SHT30;60269;52.502;16.732;2023-04-25T13:51:13;12.02;64.86
72320;SHT30;60269;52.502;16.732;2023-04-25T13:55:11;11.71;69.12
72320;SHT30;60269;52.502;16.732;2023-04-25T13:59:06;11.85;68.41
72320;SHT30;60269;52.502;16.732;2023-04-25T14:02:48;12.36;65.40
72320;SHT30;60269;52.502;16.732;2023-04-25T14:06:23;12.40;64.94
72320;SHT30;60269;52.502;16.732;2023-04-25T14:09:57;14.24;59.90
72320;SHT30;60269;52.502;16.732;2023-04-25T14:13:29;15.03;56.68
72320;SHT30;60269;52.502;16.732;2023-04-25T14:17:03;13.31;61.09
72320;SHT30;60269;52.502;16.732;2023-04-25T14:20:35;12.33;64.60
72320;SHT30;60269;52.502;16.732;2023-04-25T14:24:08;11.97;67.18
72320;SHT30;60269;52.502;16.732;2023-04-25T14:27:40;11.56;68.34
72320;SHT30;60269;52.502;16.732;2023-04-25T14:31:12;11.29;68.53
72320;SHT30;60269;52.502;16.732;2023-04-25T14:35:01;11.64;67.37
72320;SHT30;60269;52.502;16.732;2023-04-25T14:38:34;11.78;68.47
72320;SHT30;60269;52.502;16.732;2023-04-25T14:42:06;12.45;66.02
72320;SHT30;60269;52.502;16.732;2023-04-25T14:45:38;12.81;60.49
72320;SHT30;60269;52.502;16.732;2023-04-25T14:49:10;13.11;60.16
72320;SHT30;60269;52.502;16.732;2023-04-25T14:52:42;12.36;59.32
72320;SHT30;60269;52.502;16.732;2023-04-25T14:56:15;12.08;60.66
72320;SHT30;60269;52.502;16.732;2023-04-25T14:59:47;12.09;60.60
72320;SHT30;60269;52.502;16.732;2023-04-25T15:03:19;11.89;62.30
72320;SHT30;60269;52.502;16.732;2023-04-25T15:06:51;11.74;62.84
72320;SHT30;60269;52.502;16.732;2023-04-25T15:10:23;11.54;63.87
72320;SHT30;60269;52.502;16.732;2023-04-25T15:13:56;11.49;65.11
72320;SHT30;60269;52.502;16.732;2023-04-25T15:17:28;11.53;62.87
72320;SHT30;60269;52.502;16.732;2023-04-25T15:21:02;11.27;60.60
72320;SHT30;60269;52.502;16.732;2023-04-25T15:24:37;11.13;62.03
72320;SHT30;60269;52.502;16.732;2023-04-25T15:28:09;11.02;61.84
72320;SHT30;60269;52.502;16.732;2023-04-25T15:31:41;10.96;61.03
72320;SHT30;60269;52.502;16.732;2023-04-25T15:35:14;10.68;59.56
72320;SHT30;60269;52.502;16.732;2023-04-25T15:38:55;10.69;60.44
72320;SHT30;60269;52.502;16.732;2023-04-25T15:42:27;10.74;60.88
72320;SHT30;60269;52.502;16.732;2023-04-25T15:45:59;10.62;62.30
72320;SHT30;60269;52.502;16.732;2023-04-25T15:49:31;10.86;63.14
72320;SHT30;60269;52.502;16.732;2023-04-25T15:53:03;10.88;63.38
72320;SHT30;60269;52.502;16.732;2023-04-25T15:56:38;10.72;62.62
72320;SHT30;60269;52.502;16.732;2023-04-25T16:00:11;10.76;62.28
72320;SHT30;60269;52.502;16.732;2023-04-25T16:03:51;10.88;61.67
72320;SHT30;60269;52.502;16.732;2023-04-25T16:07:26;11.02;58.72
72320;SHT30;60269;52.502;16.732;2023-04-25T16:10:58;11.06;59.35
72320;SHT30;60269;52.502;16.732;2023-04-25T16:14:32;10.96;59.06
72320;SHT30;60269;52.502;16.732;2023-04-25T16:18:03;11.06;59.32
72320;SHT30;60269;52.502;16.732;2023-04-25T16:21:36;12.67;54.60
72320;SHT30;60269;52.502;16.732;2023-04-25T16:25:08;12.63;54.60
72320;SHT30;60269;52.502;16.732;2023-04-25T16:28:41;11.92;56.67
72320;SHT30;60269;52.502;16.732;2023-04-25T16:32:13;12.46;54.54
72320;SHT30;60269;52.502;16.732;2023-04-25T16:35:44;12.97;52.47
72320;SHT30;60269;52.502;16.732;2023-04-25T16:39:17;11.24;56.32
72320;SHT30;60269;52.502;16.732;2023-04-25T16:42:48;10.48;59.34
72320;SHT30;60269;52.502;16.732;2023-04-25T16:46:21;9.93;60.03
72320;SHT30;60269;52.502;16.732;2023-04-25T16:49:54;9.65;62.01
72320;SHT30;60269;52.502;16.732;2023-04-25T16:53:26;9.30;62.12
72320;SHT30;60269;52.502;16.732;2023-04-25T16:56:58;9.04;62.30
72320;SHT30;60269;52.502;16.732;2023-04-25T17:00:30;8.97;62.72
72320;SHT30;60269;52.502;16.732;2023-04-25T17:04:03;8.84;63.85
72320;SHT30;60269;52.502;16.732;2023-04-25T17:07:35;8.63;64.49
72320;SHT30;60269;52.502;16.732;2023-04-25T17:11:07;8.55;64.92
72320;SHT30;60269;52.502;16.732;2023-04-25T17:14:40;8.53;65.25
72320;SHT30;60269;52.502;16.732;2023-04-25T17:18:13;8.58;63.98
72320;SHT30;60269;52.502;16.732;2023-04-25T17:21:45;8.60;63.79
72320;SHT30;60269;52.502;16.732;2023-04-25T17:25:17;8.63;63.02
72320;SHT30;60269;52.502;16.732;2023-04-25T17:28:50;8.60;63.50
72320;SHT30;60269;52.502;16.732;2023-04-25T17:32:22;8.66;63.49
72320;SHT30;60269;52.502;16.732;2023-04-25T17:35:54;8.65;63.69
72320;SHT30;60269;52.502;16.732;2023-04-25T17:39:26;8.38;64.79
72320;SHT30;60269;52.502;16.732;2023-04-25T17:42:58;8.24;65.57
72320;SHT30;60269;52.502;16.732;2023-04-25T17:46:30;8.22;64.52
72320;SHT30;60269;52.502;16.732;2023-04-25T17:50:04;8.28;64.68
72320;SHT30;60269;52.502;16.732;2023-04-25T17:53:36;8.24;65.14
72320;SHT30;60269;52.502;16.732;2023-04-25T17:57:09;8.25;65.82
72320;SHT30;60269;52.502;16.732;2023-04-25T18:00:41;8.21;66.72
72320;SHT30;60269;52.502;16.732;2023-04-25T18:04:13;8.17;67.38
72320;SHT30;60269;52.502;16.732;2023-04-25T18:07:45;8.05;67.11
72320;SHT30;60269;52.502;16.732;2023-04-25T18:11:18;7.97;66.97
72320;SHT30;60269;52.502;16.732;2023-04-25T18:14:49;7.89;67.32
72320;SHT30;60269;52.502;16.732;2023-04-25T18:18:22;7.66;68.10
72320;SHT30;60269;52.502;16.732;2023-04-25T18:21:56;7.36;69.06
72320;SHT30;60269;52.502;16.732;2023-04-25T18:25:29;7.07;69.91
72320;SHT30;60269;52.502;16.732;2023-04-25T18:29:01;6.81;70.68
72320;SHT30;60269;52.502;16.732;2023-04-25T18:32:34;6.54;71.02
72320;SHT30;60269;52.502;16.732;2023-04-25T18:36:06;6.40;71.37
72320;SHT30;60269;52.502;16.732;2023-04-25T18:39:38;6.29;71.04
72320;SHT30;60269;52.502;16.732;2023-04-25T18:43:11;6.15;71.75
72320;SHT30;60269;52.502;16.732;2023-04-25T18:46:44;6.06;71.64
72320;SHT30;60269;52.502;16.732;2023-04-25T18:50:17;6.12;71.07
72320;SHT30;60269;52.502;16.732;2023-04-25T18:53:52;6.05;70.99
72320;SHT30;60269;52.502;16.732;2023-04-25T18:57:25;6.01;71.03
72320;SHT30;60269;52.502;16.732;2023-04-25T19:00:59;6.01;71.65
72320;SHT30;60269;52.502;16.732;2023-04-25T19:04:41;5.98;72.57
72320;SHT30;60269;52.502;16.732;2023-04-25T19:08:19;6.01;72.70
72320;SHT30;60269;52.502;16.732;2023-04-25T19:11:55;6.11;71.99
72320;SHT30;60269;52.502;16.732;2023-04-25T19:15:35;6.26;72.02
72320;SHT30;60269;52.502;16.732;2023-04-25T19:19:13;6.37;71.33
72320;SHT30;60269;52.502;16.732;2023-04-25T19:22:47;6.52;71.29
72320;SHT30;60269;52.502;16.732;2023-04-25T19:26:19;6.62;70.52
72320;SHT30;60269;52.502;16.732;2023-04-25T19:29:57;6.88;68.35
72320;SHT30;60269;52.502;16.732;2023-04-25T19:33:48;7.05;67.19
72320;SHT30;60269;52.502;16.732;2023-04-25T19:37:28;7.15;67.03
72320;SHT30;60269;52.502;16.732;2023-04-25T19:41:12;7.21;66.61
72320;SHT30;60269;52.502;16.732;2023-04-25T19:44:44;7.18;66.62
72320;SHT30;60269;52.502;16.732;2023-04-25T19:48:24;7.19;66.74
72320;SHT30;60269;52.502;16.732;2023-04-25T19:52:00;7.21;66.32
72320;SHT30;60269;52.502;16.732;2023-04-25T19:55:33;7.19;66.75
72320;SHT30;60269;52.502;16.732;2023-04-25T19:59:06;7.07;67.64
72320;SHT30;60269;52.502;16.732;2023-04-25T20:03:07;6.91;68.87
72320;SHT30;60269;52.502;16.732;2023-04-25T20:06:42;6.85;69.18
72320;SHT30;60269;52.502;16.732;2023-04-25T20:10:17;6.80;69.59
72320;SHT30;60269;52.502;16.732;2023-04-25T20:13:51;6.84;69.64
72320;SHT30;60269;52.502;16.732;2023-04-25T20:17:24;6.79;70.31
72320;SHT30;60269;52.502;16.732;2023-04-25T20:20:57;6.76;70.64
72320;SHT30;60269;52.502;16.732;2023-04-25T20:24:30;6.76;71.27
72320;SHT30;60269;52.502;16.732;2023-04-25T20:28:02;6.66;71.60
72320;SHT30;60269;52.502;16.732;2023-04-25T20:31:34;6.67;71.45
72320;SHT30;60269;52.502;16.732;2023-04-25T20:35:08;6.60;72.08
72320;SHT30;60269;52.502;16.732;2023-04-25T20:38:40;6.53;71.96
72320;SHT30;60269;52.502;16.732;2023-04-25T20:42:12;6.56;71.37
72320;SHT30;60269;52.502;16.732;2023-04-25T20:45:44;6.60;70.61
72320;SHT30;60269;52.502;16.732;2023-04-25T20:49:16;6.58;70.21
72320;SHT30;60269;52.502;16.732;2023-04-25T20:52:48;6.58;69.87
72320;SHT30;60269;52.502;16.732;2023-04-25T20:56:21;6.50;69.82
72320;SHT30;60269;52.502;16.732;2023-04-25T20:59:53;6.50;69.53
72320;SHT30;60269;52.502;16.732;2023-04-25T21:03:25;6.49;69.50
72320;SHT30;60269;52.502;16.732;2023-04-25T21:06:57;6.47;69.55
72320;SHT30;60269;52.502;16.732;2023-04-25T21:10:30;6.46;69.97
72320;SHT30;60269;52.502;16.732;2023-04-25T21:14:02;6.42;69.92
72320;SHT30;60269;52.502;16.732;2023-04-25T21:17:35;6.40;69.98
72320;SHT30;60269;52.502;16.732;2023-04-25T21:21:07;6.40;70.23
72320;SHT30;60269;52.502;16.732;2023-04-25T21:24:39;6.35;70.46
72320;SHT30;60269;52.502;16.732;2023-04-25T21:28:11;6.29;70.90
72320;SHT30;60269;52.502;16.732;2023-04-25T21:31:44;6.28;71.16
72320;SHT30;60269;52.502;16.732;2023-04-25T21:35:17;6.19;71.94
72320;SHT30;60269;52.502;16.732;2023-04-25T21:38:50;5.98;73.13
72320;SHT30;60269;52.502;16.732;2023-04-25T21:42:22;5.95;73.99
72320;SHT30;60269;52.502;16.732;2023-04-25T21:45:54;5.95;74.92
72320;SHT30;60269;52.502;16.732;2023-04-25T21:49:46;5.73;76.53
72320;SHT30;60269;52.502;16.732;2023-04-25T21:53:18;5.61;77.67
72320;SHT30;60269;52.502;16.732;2023-04-25T21:56:50;5.42;78.82
72320;SHT30;60269;52.502;16.732;2023-04-25T22:00:22;5.30;79.78
72320;SHT30;60269;52.502;16.732;2023-04-25T22:03:58;5.19;80.59
72320;SHT30;60269;52.502;16.732;2023-04-25T22:07:30;5.16;80.98
72320;SHT30;60269;52.502;16.732;2023-04-25T22:11:02;5.19;81.02
72320;SHT30;60269;52.502;16.732;2023-04-25T22:14:37;5.20;80.66
72320;SHT30;60269;52.502;16.732;2023-04-25T22:18:09;5.25;80.25
72320;SHT30;60269;52.502;16.732;2023-04-25T22:21:42;5.06;80.94
72320;SHT30;60269;52.502;16.732;2023-04-25T22:25:14;4.96;81.16
72320;SHT30;60269;52.502;16.732;2023-04-25T22:28:46;4.98;80.90